createdAt,value
2024-05-09T00:00:12.620Z,92.80
2024-05-09T00:05:20.974Z,92.00
2024-05-09T00:10:35.195Z,90.70
2024-05-09T00:15:42.669Z,91.60
2024-05-09T00:20:47.932Z,88.70
2024-05-09T00:25:55.275Z,86.50
2024-05-09T00:31:00.427Z,84.30
2024-05-09T00:36:05.157Z,83.90
2024-05-09T00:41:13.432Z,88.10
2024-05-09T00:46:18.862Z,91.90
2024-05-09T00:51:23.959Z,91.00
2024-05-09T00:56:31.602Z,90.30
2024-05-09T01:01:36.831Z,90.20
2024-05-09T01:06:41.576Z,90.00
2024-05-09T01:11:49.149Z,92.40
2024-05-09T01:16:54.026Z,95.40
2024-05-09T01:21:58.929Z,95.60
2024-05-09T01:27:06.382Z,95.20
2024-05-09T01:32:11.238Z,97.70
2024-05-09T01:37:16.140Z,99.90
2024-05-09T01:42:23.535Z,99.90
2024-05-09T01:47:28.371Z,99.90
2024-05-09T01:52:38.526Z,99.90
2024-05-09T01:57:45.878Z,99.90
2024-05-09T02:02:51.660Z,99.90
2024-05-09T02:07:56.446Z,99.90
2024-05-09T02:13:03.829Z,99.90
2024-05-09T02:18:09.103Z,99.90
2024-05-09T02:23:14.492Z,99.90
2024-05-09T02:28:23.025Z,99.90
2024-05-09T02:33:27.970Z,99.90
2024-05-09T02:38:33.539Z,99.90
2024-05-09T02:43:40.991Z,99.90
2024-05-09T02:48:46.149Z,99.90
2024-05-09T02:53:51.445Z,99.90
2024-05-09T02:58:59.599Z,99.90
2024-05-09T03:04:04.765Z,99.90
2024-05-09T03:09:11.372Z,99.90
2024-05-09T03:14:21.516Z,99.90
2024-05-09T03:19:26.555Z,99.90
2024-05-09T03:24:31.379Z,99.90
2024-05-09T03:29:39.436Z,99.90
2024-05-09T03:34:44.182Z,99.90
2024-05-09T03:39:49.009Z,99.90
2024-05-09T03:44:56.321Z,99.90
2024-05-09T03:50:01.156Z,99.90
2024-05-09T03:55:05.829Z,99.90
2024-05-09T04:00:18.290Z,99.90
2024-05-09T04:05:33.331Z,99.90
2024-05-09T04:10:38.235Z,99.90
2024-05-09T04:15:45.995Z,99.90
2024-05-09T04:20:50.960Z,99.90
2024-05-09T04:25:56.000Z,99.90
2024-05-09T04:31:03.345Z,99.90
2024-05-09T04:36:09.722Z,99.90
2024-05-09T04:41:14.526Z,96.90
2024-05-09T04:46:22.224Z,77.90
2024-05-09T04:51:27.430Z,67.30
2024-05-09T04:56:32.336Z,62.40
2024-05-09T05:01:39.899Z,71.10
2024-05-09T05:06:45.078Z,87.50
2024-05-09T05:11:50.426Z,96.90
2024-05-09T05:16:57.951Z,99.90
2024-05-09T05:22:02.828Z,99.90
2024-05-09T05:27:07.873Z,99.90
2024-05-09T05:32:15.851Z,99.90
2024-05-09T05:37:20.612Z,99.90
2024-05-09T05:42:25.464Z,99.90
2024-05-09T05:47:32.867Z,99.90
2024-05-09T05:52:37.639Z,99.90
2024-05-09T05:57:42.412Z,99.90
2024-05-09T06:02:49.904Z,98.70
2024-05-09T06:07:54.685Z,96.90
2024-05-09T06:12:59.506Z,96.10
2024-05-09T06:18:07.405Z,94.70
2024-05-09T06:23:12.929Z,93.30
2024-05-09T06:28:17.966Z,92.60
2024-05-09T06:33:25.975Z,92.90
2024-05-09T06:38:32.842Z,93.70
2024-05-09T06:43:37.928Z,93.40
2024-05-09T06:48:45.839Z,92.70
2024-05-09T06:53:50.792Z,90.60
2024-05-09T06:58:55.761Z,85.40
2024-05-09T07:04:03.184Z,81.60
2024-05-09T07:09:08.132Z,79.40
2024-05-09T07:14:12.871Z,80.20
2024-05-09T07:19:21.725Z,77.40
2024-05-09T07:24:26.590Z,72.70
2024-05-09T07:29:31.883Z,74.70
2024-05-09T07:34:40.011Z,72.10
2024-05-09T07:39:46.276Z,72.60
2024-05-09T07:44:51.109Z,72.20
2024-05-09T07:51:48.011Z,71.50
2024-05-09T07:55:23.824Z,71.10
2024-05-09T08:00:31.545Z,68.10
2024-05-09T08:05:40.490Z,65.00
2024-05-09T08:10:45.360Z,63.00
2024-05-09T08:15:50.144Z,61.20
2024-05-09T08:20:58.500Z,60.50
2024-05-09T08:26:03.721Z,61.20
2024-05-09T08:31:10.875Z,60.70
2024-05-09T08:36:18.563Z,58.30
2024-05-09T08:41:23.430Z,60.50
2024-05-09T08:46:29.500Z,60.10
2024-05-09T08:51:38.647Z,60.60
2024-05-09T08:56:48.208Z,59.40
2024-05-09T09:01:53.275Z,57.30
2024-05-09T09:07:03.474Z,55.50
2024-05-09T09:12:10.736Z,55.30
2024-05-09T09:17:16.170Z,53.50
2024-05-09T09:22:23.718Z,53.80
2024-05-09T09:27:28.469Z,53.30
2024-05-09T09:32:33.276Z,52.50
2024-05-09T09:37:40.926Z,49.60
2024-05-09T09:42:46.576Z,48.50
2024-05-09T09:47:51.748Z,47.30
2024-05-09T09:53:00.058Z,46.60
2024-05-09T09:58:09.512Z,46.90
2024-05-09T10:03:19.140Z,49.30
2024-05-09T10:08:27.268Z,49.00
2024-05-09T10:13:35.628Z,47.20
2024-05-09T10:18:41.664Z,50.10
2024-05-09T10:23:58.993Z,50.60
2024-05-09T10:29:04.736Z,52.10
2024-05-09T10:34:10.663Z,52.00
2024-05-09T10:39:19.161Z,50.00
2024-05-09T10:44:24.177Z,50.40
2024-05-09T10:49:29.006Z,50.30
2024-05-09T10:54:40.928Z,50.00
2024-05-09T10:59:46.199Z,49.20
2024-05-09T11:04:51.076Z,51.10
2024-05-09T11:10:01.391Z,51.00
2024-05-09T11:15:06.298Z,49.60
2024-05-09T11:20:17.063Z,48.20
2024-05-09T11:25:33.137Z,48.00
2024-05-09T11:30:38.011Z,48.90
2024-05-09T11:35:43.167Z,48.90
2024-05-09T11:40:50.671Z,48.10
2024-05-09T11:45:55.470Z,48.00
2024-05-09T11:51:00.240Z,48.10
2024-05-09T11:56:08.286Z,48.60
2024-05-09T12:01:13.296Z,48.40
2024-05-09T12:06:18.560Z,48.10
2024-05-09T12:11:26.368Z,48.80
2024-05-09T12:16:31.578Z,48.50
2024-05-09T12:21:36.488Z,48.90
2024-05-09T12:26:43.984Z,49.00
2024-05-09T12:31:48.975Z,49.60
2024-05-09T12:36:54.098Z,49.60
2024-05-09T12:42:01.712Z,50.20
2024-05-09T12:47:06.516Z,51.30
2024-05-09T12:52:11.861Z,51.30
2024-05-09T12:57:19.217Z,49.80
2024-05-09T13:02:24.268Z,50.20
2024-05-09T13:07:29.169Z,50.40
2024-05-09T13:12:36.522Z,50.50
2024-05-09T13:17:41.228Z,51.70
2024-05-09T13:22:46.217Z,51.50
2024-05-09T13:27:53.767Z,50.80
2024-05-09T13:32:58.595Z,51.30
2024-05-09T13:38:04.721Z,50.40
2024-05-09T13:43:12.605Z,51.70
2024-05-09T13:48:17.902Z,50.70
2024-05-09T13:53:23.153Z,50.90
2024-05-09T13:58:32.974Z,51.20
2024-05-09T14:03:37.862Z,51.10
2024-05-09T14:08:42.682Z,50.70
2024-05-09T14:13:49.987Z,50.00
2024-05-09T14:18:54.778Z,49.60
2024-05-09T14:24:01.149Z,49.20
2024-05-09T14:29:08.569Z,49.20
2024-05-09T14:34:13.377Z,49.30
2024-05-09T14:39:18.482Z,49.20
2024-05-09T14:44:25.951Z,48.70
2024-05-09T14:49:31.227Z,49.50
2024-05-09T14:54:38.367Z,48.30
2024-05-09T14:59:45.708Z,50.30
2024-05-09T15:04:50.617Z,50.40
2024-05-09T15:09:55.482Z,47.40
2024-05-09T15:15:05.889Z,47.20
2024-05-09T15:20:17.018Z,47.70
2024-05-09T15:25:25.021Z,47.10
2024-05-09T15:30:33.949Z,47.70
2024-05-09T15:35:41.680Z,48.50
2024-05-09T15:40:47.268Z,48.10
2024-05-09T15:45:54.759Z,48.50
2024-05-09T15:51:00.022Z,48.80
2024-05-09T15:56:04.890Z,48.00
2024-05-09T16:01:12.568Z,47.50
2024-05-09T16:06:17.480Z,48.50
2024-05-09T16:11:22.265Z,49.00
2024-05-09T16:16:29.804Z,48.80
2024-05-09T16:21:34.689Z,48.70
2024-05-09T16:26:39.348Z,48.10
2024-05-09T16:31:47.036Z,46.80
2024-05-09T16:36:52.671Z,44.90
2024-05-09T16:41:57.457Z,45.20
2024-05-09T16:47:06.235Z,44.80
2024-05-09T16:52:12.128Z,44.20
2024-05-09T16:57:16.956Z,44.80
2024-05-09T17:02:24.466Z,44.70
2024-05-09T17:07:29.605Z,45.80
2024-05-09T17:12:34.660Z,45.50
2024-05-09T17:17:42.745Z,46.20
2024-05-09T17:22:47.468Z,46.90
2024-05-09T17:27:52.279Z,48.00
2024-05-09T17:33:00.219Z,48.80
2024-05-09T17:38:05.074Z,49.20
2024-05-09T17:43:10.971Z,48.90
2024-05-09T17:48:21.688Z,48.80
2024-05-09T17:53:26.497Z,48.40
2024-05-09T17:58:31.452Z,49.90
2024-05-09T18:03:39.688Z,50.70
2024-05-09T18:08:44.596Z,51.50
2024-05-09T18:13:49.719Z,52.20
2024-05-09T18:18:58.647Z,52.30
2024-05-09T18:24:03.438Z,53.30
2024-05-09T18:29:10.423Z,54.50
2024-05-09T18:34:17.911Z,55.60
2024-05-09T18:39:22.664Z,56.40
2024-05-09T18:44:27.434Z,57.40
2024-05-09T18:49:34.890Z,58.40
2024-05-09T18:54:39.928Z,59.30
2024-05-09T18:59:44.638Z,60.20
2024-05-09T19:04:52.935Z,61.00
2024-05-09T19:09:57.868Z,61.40
2024-05-09T19:15:02.713Z,61.80
2024-05-09T19:20:20.546Z,62.10
2024-05-09T19:25:32.985Z,63.40
2024-05-09T19:30:41.316Z,63.50
2024-05-09T19:35:50.063Z,63.90
2024-05-09T19:40:54.854Z,64.20
2024-05-09T19:45:59.735Z,65.10
2024-05-09T19:51:07.369Z,65.60
2024-05-09T19:56:12.033Z,65.40
2024-05-09T20:01:17.793Z,65.20
2024-05-09T20:06:26.410Z,65.70
2024-05-09T20:11:32.940Z,65.80
2024-05-09T20:16:37.834Z,66.10
2024-05-09T20:21:46.827Z,66.50
2024-05-09T20:26:51.705Z,66.40
2024-05-09T20:31:56.497Z,67.00
2024-05-09T20:37:03.862Z,67.60
2024-05-09T20:42:08.939Z,68.40
2024-05-09T20:47:14.886Z,68.50
2024-05-09T20:52:22.690Z,68.10
2024-05-09T20:57:27.407Z,68.50
2024-05-09T21:02:32.288Z,69.70
2024-05-09T21:07:39.984Z,71.80
2024-05-09T21:12:44.966Z,73.30
2024-05-09T21:17:49.774Z,73.70
2024-05-09T21:22:57.540Z,74.00
2024-05-09T21:28:02.551Z,74.50
2024-05-09T21:33:07.831Z,80.10
2024-05-09T21:38:16.162Z,79.60
2024-05-09T21:43:21.084Z,79.60
2024-05-09T21:48:26.308Z,70.80
2024-05-09T21:53:34.508Z,73.60
2024-05-09T21:58:40.744Z,73.50
2024-05-09T22:03:45.646Z,72.00
2024-05-09T22:08:52.974Z,71.00
2024-05-09T22:13:57.767Z,71.70
2024-05-09T22:19:02.841Z,70.70
2024-05-09T22:24:10.382Z,74.70
2024-05-09T22:29:15.088Z,73.10
2024-05-09T22:34:19.808Z,81.80
2024-05-09T22:39:27.166Z,78.40
2024-05-09T22:44:31.844Z,76.60
2024-05-09T22:49:36.618Z,78.60
2024-05-09T22:54:43.924Z,86.30
2024-05-09T22:59:48.634Z,90.00
2024-05-09T23:04:53.411Z,91.10
2024-05-09T23:10:01.004Z,91.50
2024-05-09T23:15:06.383Z,90.30
2024-05-09T23:20:14.773Z,92.40
2024-05-09T23:25:22.720Z,97.00
2024-05-09T23:30:36.067Z,98.40
2024-05-09T23:35:44.901Z,98.70
2024-05-09T23:40:52.445Z,99.30
2024-05-09T23:45:57.261Z,99.20
2024-05-09T23:51:01.922Z,99.90
2024-05-09T23:56:09.982Z,99.80
